Time;durP1;ratioP1;P1;durP2;ratioP2;P2;SDS_P1;SDS_P2;PMS_P1;PMS_P2;Temp;Humidity;BMP_temperature;BMP_pressure;BME280_temperature;BME280_humidity;BME280_pressure;Samples;Min_cycle;Max_cycle;Signal;HPM_P1;HPM_P2
2022/06/15 00:00:26;;;;;;;4.53;3.80;;;19.50;75.80;;;;;;10394186;28;20237;-82
2022/06/15 00:05:29;;;;;;;5.43;4.30;;;19.50;74.90;;;;;;10382826;28;20785;-82
2022/06/15 00:10:34;;;;;;;5.67;4.30;;;19.40;74.80;;;;;;10386699;28;20260;-82
2022/06/15 00:15:36;;;;;;;4.07;3.77;;;19.30;76.00;;;;;;10403151;28;20205;-81
2022/06/15 00:20:38;;;;;;;4.03;3.60;;;19.30;76.40;;;;;;10420890;22;20648;-81
2022/06/15 00:25:42;;;;;;;4.70;4.20;;;19.30;75.70;;;;;;10401070;28;20655;-82
2022/06/15 00:30:46;;;;;;;4.00;3.70;;;19.20;76.90;;;;;;10388389;28;20230;-83
2022/06/15 00:35:56;;;;;;;5.47;3.83;;;19.20;77.10;;;;;;10388408;28;20191;-82
2022/06/15 00:41:01;;;;;;;4.27;3.87;;;19.10;77.50;;;;;;10383887;28;20206;-81
2022/06/15 00:46:27;;;;;;;6.03;5.53;;;19.10;76.60;;;;;;10387496;28;20240;-82
2022/06/15 00:51:30;;;;;;;4.30;3.73;;;19.00;77.30;;;;;;10391058;28;20237;-82
2022/06/15 00:56:36;;;;;;;5.13;4.27;;;19.00;77.10;;;;;;10386278;28;20195;-82
2022/06/15 01:01:38;;;;;;;4.30;3.90;;;19.00;76.90;;;;;;10384614;28;20213;-82
2022/06/15 01:06:49;;;;;;;4.27;3.30;;;18.90;77.50;;;;;;10392881;28;20198;-79
2022/06/15 01:12:10;;;;;;;3.63;3.43;;;18.90;77.00;;;;;;10393045;28;20308;-82
2022/06/15 01:17:24;;;;;;;4.23;3.80;;;18.90;78.50;;;;;;10418004;28;20669;-82
2022/06/15 01:22:46;;;;;;;4.63;4.20;;;18.80;77.60;;;;;;10405485;28;20253;-82
2022/06/15 01:28:08;;;;;;;6.57;4.10;;;18.80;78.70;;;;;;10423924;28;20228;-82
2022/06/15 01:33:26;;;;;;;6.50;4.30;;;18.80;79.20;;;;;;10414902;28;20190;-81
2022/06/15 01:38:38;;;;;;;5.30;4.80;;;18.70;78.90;;;;;;10417342;28;20228;-82
2022/06/15 01:43:45;;;;;;;4.63;3.80;;;18.70;79.90;;;;;;10405745;28;20617;-82
2022/06/15 01:48:50;;;;;;;3.70;3.40;;;18.70;78.90;;;;;;10422790;28;20364;-80
2022/06/15 01:53:57;;;;;;;4.27;3.97;;;18.60;79.50;;;;;;10409590;28;20225;-82
2022/06/15 01:59:03;;;;;;;4.20;3.90;;;18.60;78.60;;;;;;10427937;28;20218;-82
2022/06/15 02:04:14;;;;;;;5.83;4.40;;;18.60;78.90;;;;;;10401860;28;20202;-82
2022/06/15 02:09:25;;;;;;;4.30;3.90;;;18.50;78.60;;;;;;10420215;28;20230;-82
2022/06/15 02:14:32;;;;;;;3.80;3.50;;;18.40;79.00;;;;;;10422762;28;20284;-82
2022/06/15 02:19:41;;;;;;;4.50;4.10;;;18.40;79.80;;;;;;10422713;28;20230;-82
2022/06/15 02:24:47;;;;;;;4.57;4.20;;;18.30;80.00;;;;;;10419652;28;20202;-81
2022/06/15 02:29:53;;;;;;;5.03;4.20;;;18.30;80.90;;;;;;10408423;28;20226;-79
2022/06/15 02:34:58;;;;;;;3.97;3.67;;;18.30;79.90;;;;;;10431500;28;20198;-80
2022/06/15 02:40:00;;;;;;;4.40;4.03;;;18.30;79.00;;;;;;10432506;28;20214;-79
2022/06/15 02:45:07;;;;;;;4.27;3.97;;;18.20;79.10;;;;;;10429320;28;20205;-80
2022/06/15 02:50:16;;;;;;;4.00;3.70;;;18.20;78.70;;;;;;10411269;28;20249;-81
2022/06/15 02:55:21;;;;;;;4.10;3.80;;;18.10;79.30;;;;;;10413765;28;20202;-80
2022/06/15 03:00:24;;;;;;;4.80;3.60;;;18.10;79.30;;;;;;10397620;28;20227;-81
2022/06/15 03:05:29;;;;;;;4.33;3.93;;;18.00;78.90;;;;;;10419696;28;20775;-81
2022/06/15 03:10:31;;;;;;;5.93;3.87;;;18.00;78.90;;;;;;10397319;28;20777;-81
2022/06/15 03:15:34;;;;;;;4.53;4.20;;;17.90;79.50;;;;;;10417621;28;20201;-81
2022/06/15 03:20:38;;;;;;;5.00;4.60;;;17.90;80.20;;;;;;10411442;28;20225;-78
2022/06/15 03:25:40;;;;;;;4.30;4.00;;;17.80;78.50;;;;;;10405375;28;20220;-78
2022/06/15 03:30:42;;;;;;;4.87;4.47;;;17.80;78.30;;;;;;10407998;28;20237;-78
2022/06/15 03:35:48;;;;;;;4.57;4.17;;;17.70;79.80;;;;;;10404435;28;20724;-78
2022/06/15 03:40:59;;;;;;;4.30;4.00;;;17.70;80.70;;;;;;10406427;28;20886;-78
2022/06/15 03:46:01;;;;;;;4.93;4.53;;;17.70;80.90;;;;;;10390895;28;20305;-79
2022/06/15 03:51:09;;;;;;;4.70;4.40;;;17.70;83.00;;;;;;10384732;28;20607;-78
2022/06/15 03:56:41;;;;;;;5.03;4.73;;;17.70;82.20;;;;;;10410135;28;20259;-79
2022/06/15 04:01:45;;;;;;;5.00;4.60;;;17.70;83.00;;;;;;10393796;28;20222;-78
2022/06/15 04:06:51;;;;;;;4.30;4.00;;;17.70;83.10;;;;;;10404849;28;20197;-77
2022/06/15 04:12:08;;;;;;;4.77;4.30;;;17.70;83.00;;;;;;10406688;28;20232;-77
2022/06/15 04:17:13;;;;;;;5.00;4.20;;;17.70;83.50;;;;;;10407783;28;20201;-78
2022/06/15 04:22:45;;;;;;;4.20;3.90;;;17.80;83.90;;;;;;10402819;28;20594;-79
2022/06/15 04:27:49;;;;;;;4.90;4.50;;;17.80;83.00;;;;;;10413514;28;20249;-81
2022/06/15 04:32:53;;;;;;;5.03;4.73;;;17.80;82.40;;;;;;10419220;28;20754;-79
2022/06/15 04:38:00;;;;;;;4.93;4.40;;;17.80;83.90;;;;;;10425507;28;20194;-81
2022/06/15 04:43:09;;;;;;;5.43;4.97;;;17.90;82.80;;;;;;10417202;28;20198;-80
2022/06/15 04:48:11;;;;;;;5.60;5.20;;;17.80;82.90;;;;;;10401503;28;20245;-79
2022/06/15 04:53:17;;;;;;;4.67;4.37;;;17.80;83.80;;;;;;10413554;28;20210;-81
2022/06/15 04:58:24;;;;;;;4.00;3.70;;;17.80;84.40;;;;;;10410196;28;20228;-78
2022/06/15 05:03:33;;;;;;;7.43;4.57;;;17.90;83.90;;;;;;10380477;28;20202;-77
2022/06/15 05:08:43;;;;;;;5.47;4.97;;;17.90;84.80;;;;;;10406110;28;20272;-79
2022/06/15 05:13:45;;;;;;;4.80;4.50;;;18.00;84.70;;;;;;10402331;28;20210;-78
2022/06/15 05:18:47;;;;;;;5.03;4.60;;;18.00;84.90;;;;;;10397054;28;20706;-77
2022/06/15 05:23:59;;;;;;;4.70;4.40;;;18.10;85.90;;;;;;10402336;28;20209;-78
2022/06/15 05:29:22;;;;;;;5.67;5.27;;;18.10;86.30;;;;;;10398552;28;20229;-78
2022/06/15 05:34:29;;;;;;;6.50;5.90;;;18.20;86.90;;;;;;10406648;28;20206;-78
2022/06/15 05:39:34;;;;;;;6.17;5.50;;;18.30;87.30;;;;;;10394544;28;20256;-78
2022/06/15 05:44:42;;;;;;;6.47;5.33;;;18.40;86.30;;;;;;10377752;28;20202;-77
2022/06/15 05:49:44;;;;;;;6.60;5.57;;;18.50;86.30;;;;;;10399812;28;20222;-79
2022/06/15 05:54:50;;;;;;;6.63;5.23;;;18.50;86.90;;;;;;10399941;28;20251;-79
2022/06/15 05:59:53;;;;;;;6.67;4.90;;;18.60;86.10;;;;;;10406501;28;20229;-78
2022/06/15 06:04:55;;;;;;;6.00;5.17;;;18.70;85.70;;;;;;10410042;28;20194;-78
2022/06/15 06:09:59;;;;;;;5.67;5.17;;;18.80;85.80;;;;;;10404452;28;20343;-78
2022/06/15 06:15:01;;;;;;;5.80;5.27;;;18.90;85.00;;;;;;10393284;28;20202;-79
2022/06/15 06:20:03;;;;;;;6.20;5.60;;;19.00;86.30;;;;;;10429769;22;20222;-82
2022/06/15 06:25:08;;;;;;;5.60;5.10;;;19.10;85.50;;;;;;10427616;28;20214;-82
2022/06/15 06:30:12;;;;;;;5.57;5.17;;;19.20;84.90;;;;;;10416015;28;20248;-82
2022/06/15 06:35:15;;;;;;;6.67;5.83;;;19.30;85.20;;;;;;10419698;28;20198;-82
2022/06/15 06:40:18;;;;;;;5.60;5.10;;;19.50;85.80;;;;;;10423632;28;20214;-82
2022/06/15 06:45:20;;;;;;;6.10;5.50;;;19.70;86.40;;;;;;10424773;28;20228;-82
2022/06/15 06:50:23;;;;;;;6.43;5.83;;;19.90;85.30;;;;;;10422416;28;20233;-82
2022/06/15 06:55:28;;;;;;;6.17;5.60;;;20.30;84.00;;;;;;10379920;28;20208;-82
2022/06/15 07:00:32;;;;;;;6.17;5.77;;;20.60;83.70;;;;;;10379511;28;20213;-82
2022/06/15 07:05:35;;;;;;;6.50;5.57;;;20.90;82.90;;;;;;10381377;28;20230;-82
2022/06/15 07:10:38;;;;;;;5.50;5.10;;;21.20;82.60;;;;;;10362850;28;20223;-82
2022/06/15 07:15:40;;;;;;;5.20;4.70;;;21.50;80.10;;;;;;10380047;28;20200;-79
2022/06/15 07:20:43;;;;;;;5.13;4.73;;;21.90;78.90;;;;;;10361721;28;20276;-82
2022/06/15 07:25:46;;;;;;;4.70;4.40;;;22.20;75.30;;;;;;10380939;28;20202;-82
2022/06/15 07:30:48;;;;;;;6.30;3.73;;;22.60;75.40;;;;;;10380194;28;20233;-82
2022/06/15 07:35:53;;;;;;;5.80;4.63;;;22.90;73.00;;;;;;10379526;28;20203;-82
2022/06/15 07:40:57;;;;;;;4.60;4.20;;;23.40;72.40;;;;;;10378842;28;20219;-82
2022/06/15 07:46:00;;;;;;;4.17;3.87;;;23.80;71.60;;;;;;10357808;28;20620;-80
2022/06/15 07:51:02;;;;;;;5.60;4.73;;;24.50;70.40;;;;;;10374905;28;20240;-80
2022/06/15 07:56:06;;;;;;;7.50;4.13;;;25.20;69.60;;;;;;10388492;28;20208;-80
2022/06/15 08:01:08;;;;;;;4.20;3.90;;;25.90;67.00;;;;;;10376870;28;20230;-80
2022/06/15 08:06:10;;;;;;;3.97;3.77;;;26.60;66.80;;;;;;10369633;28;20198;-80
2022/06/15 08:11:14;;;;;;;4.57;4.27;;;27.30;64.80;;;;;;10351049;28;20250;-80
2022/06/15 08:16:20;;;;;;;4.50;4.07;;;27.80;63.60;;;;;;10371853;28;20214;-80
2022/06/15 08:21:25;;;;;;;4.60;4.30;;;28.30;62.20;;;;;;10394576;28;20218;-80
2022/06/15 08:26:34;;;;;;;4.10;3.70;;;28.80;62.00;;;;;;10393416;28;20201;-81
2022/06/15 08:31:37;;;;;;;4.70;4.40;;;29.30;60.00;;;;;;10389133;28;20229;-81
2022/06/15 08:36:39;;;;;;;5.10;4.57;;;29.80;58.40;;;;;;10383483;28;20230;-81
2022/06/15 08:41:50;;;;;;;4.40;4.00;;;30.00;59.10;;;;;;10398978;28;20230;-81
2022/06/15 08:47:00;;;;;;;4.83;4.43;;;30.40;59.10;;;;;;10376851;28;20236;-81
2022/06/15 08:52:07;;;;;;;8.17;4.50;;;30.70;58.40;;;;;;10372728;28;20275;-81
2022/06/15 08:57:16;;;;;;;4.60;4.20;;;31.00;57.80;;;;;;10402733;28;20452;-81
2022/06/15 09:02:25;;;;;;;4.37;4.07;;;31.30;56.70;;;;;;10396743;28;20230;-81
2022/06/15 09:07:50;;;;;;;4.33;3.93;;;31.70;56.40;;;;;;10389152;28;20743;-81
2022/06/15 09:13:08;;;;;;;3.67;3.37;;;32.00;55.30;;;;;;10405342;28;20244;-81
2022/06/15 09:18:17;;;;;;;3.67;3.47;;;32.30;55.60;;;;;;10400346;28;20660;-80
2022/06/15 09:23:23;;;;;;;4.20;3.90;;;32.60;54.30;;;;;;10394317;28;20631;-81
2022/06/15 09:28:33;;;;;;;4.30;3.73;;;32.80;54.20;;;;;;10376280;28;20253;-81
2022/06/15 09:33:41;;;;;;;4.70;4.30;;;33.20;54.10;;;;;;10387595;28;20661;-80
2022/06/15 09:38:43;;;;;;;4.90;4.50;;;33.80;53.20;;;;;;10413126;28;20260;-81
2022/06/15 09:43:57;;;;;;;4.50;4.15;;;34.70;52.20;;;;;;10409044;28;20240;-81
2022/06/15 09:49:10;;;;;;;3.65;3.20;;;35.60;50.70;;;;;;10409922;28;20221;-81
2022/06/15 09:54:24;;;;;;;3.85;3.53;;;36.90;48.80;;;;;;10407853;28;20670;-81
2022/06/15 09:59:33;;;;;;;3.35;2.97;;;38.20;46.60;;;;;;10415943;28;20237;-81
2022/06/15 10:04:37;;;;;;;3.55;3.35;;;39.30;45.10;;;;;;10401462;28;20288;-81
2022/06/15 10:09:44;;;;;;;3.65;3.40;;;39.10;43.10;;;;;;10397710;28;20308;-81
2022/06/15 10:14:52;;;;;;;3.63;3.42;;;38.90;44.70;;;;;;10405472;28;20642;-81
2022/06/15 10:19:55;;;;;;;4.30;3.85;;;39.30;43.40;;;;;;10382054;28;20768;-81
2022/06/15 10:24:59;;;;;;;3.40;3.20;;;38.20;43.90;;;;;;10374987;28;20198;-81
2022/06/15 10:30:18;;;;;;;3.27;3.07;;;36.60;42.50;;;;;;10370390;28;20320;-81
2022/06/15 10:35:21;;;;;;;4.20;3.80;;;35.00;46.00;;;;;;10382730;28;20212;-81
2022/06/15 10:40:28;;;;;;;4.23;3.93;;;33.60;47.30;;;;;;10399710;28;20222;-81
2022/06/15 10:45:36;;;;;;;5.80;3.93;;;32.60;47.40;;;;;;10406923;28;20667;-81
2022/06/15 10:50:44;;;;;;;4.57;4.20;;;31.60;49.50;;;;;;10388424;28;20244;-81
2022/06/15 11:06:44;;;;;;;3.50;3.30;;;29.50;53.10;;;;;;10406032;28;20289;-81
2022/06/15 11:11:47;;;;;;;4.80;4.40;;;28.90;56.70;;;;;;10415084;28;20301;-81
2022/06/15 11:22:15;;;;;;;4.90;4.47;;;28.20;56.20;;;;;;10418229;28;20232;-82
2022/06/15 11:27:24;;;;;;;3.87;3.67;;;27.80;57.90;;;;;;10408651;28;20209;-82
2022/06/15 11:32:35;;;;;;;4.83;3.60;;;27.60;57.80;;;;;;10413027;28;20215;-82
2022/06/15 11:37:44;;;;;;;4.80;4.30;;;27.40;57.40;;;;;;10403591;28;20743;-81
2022/06/15 11:42:49;;;;;;;3.43;3.13;;;27.30;55.80;;;;;;10406815;28;20230;-81
2022/06/15 11:48:05;;;;;;;4.10;3.90;;;27.30;55.90;;;;;;10400947;28;20293;-79
2022/06/15 11:53:19;;;;;;;4.13;3.73;;;27.20;56.30;;;;;;10409884;28;20221;-80
2022/06/15 11:58:35;;;;;;;3.23;2.93;;;27.10;55.90;;;;;;10405275;28;20240;-80
2022/06/15 12:04:08;;;;;;;3.70;3.50;;;27.10;56.50;;;;;;10402259;28;20638;-81
2022/06/15 12:09:21;;;;;;;3.73;3.43;;;27.00;57.10;;;;;;10416562;28;20222;-80
2022/06/15 12:14:32;;;;;;;7.00;4.50;;;26.90;56.30;;;;;;10405267;28;20214;-80
2022/06/15 12:19:47;;;;;;;4.00;3.73;;;26.90;55.60;;;;;;10391586;28;20269;-81
2022/06/15 12:24:55;;;;;;;3.60;3.30;;;26.90;56.00;;;;;;10405021;28;20657;-81
2022/06/15 12:30:05;;;;;;;4.73;3.83;;;27.00;55.30;;;;;;10400414;28;20297;-81
2022/06/15 12:35:21;;;;;;;3.83;3.53;;;27.00;55.30;;;;;;10387370;28;20206;-81
2022/06/15 12:40:30;;;;;;;3.83;3.47;;;27.00;56.80;;;;;;10402527;28;20229;-80
2022/06/15 12:45:35;;;;;;;3.57;3.37;;;27.10;53.20;;;;;;10389600;28;20208;-81
2022/06/15 12:50:46;;;;;;;4.83;3.60;;;27.20;55.00;;;;;;10381948;28;20268;-82
2022/06/15 12:55:58;;;;;;;3.87;3.47;;;27.20;53.70;;;;;;10391232;28;20202;-81
2022/06/15 13:01:07;;;;;;;5.93;4.70;;;27.30;54.80;;;;;;10406364;28;20260;-79
2022/06/15 13:06:26;;;;;;;3.73;3.53;;;27.30;54.00;;;;;;10383274;28;20205;-81
2022/06/15 13:11:30;;;;;;;4.10;3.80;;;27.20;56.70;;;;;;10407427;28;20711;-81
2022/06/15 13:16:38;;;;;;;4.10;3.80;;;27.20;53.50;;;;;;10386183;28;20217;-81
2022/06/15 13:21:54;;;;;;;3.63;3.43;;;27.20;53.70;;;;;;10405772;28;20241;-82
2022/06/15 13:27:02;;;;;;;3.60;3.30;;;27.20;56.60;;;;;;10415604;28;20201;-81
2022/06/15 13:32:06;;;;;;;4.23;3.80;;;27.10;55.30;;;;;;10387417;28;20244;-81
2022/06/15 13:37:22;;;;;;;3.70;3.50;;;27.00;55.20;;;;;;10396062;28;20215;-82
2022/06/15 13:42:29;;;;;;;3.93;3.67;;;27.20;54.20;;;;;;10411052;28;20229;-83
2022/06/15 13:47:51;;;;;;;4.33;3.93;;;27.30;53.30;;;;;;10401205;28;20206;-83
2022/06/15 13:52:56;;;;;;;4.17;3.87;;;27.30;55.20;;;;;;10404738;28;20222;-82
2022/06/15 13:58:36;;;;;;;4.40;3.60;;;27.30;56.00;;;;;;10415287;28;20206;-82
2022/06/15 14:04:12;;;;;;;3.90;3.50;;;27.20;56.70;;;;;;10397735;28;20276;-82
2022/06/15 14:09:28;;;;;;;4.13;3.83;;;27.20;55.10;;;;;;10413129;28;20222;-82
2022/06/15 14:14:49;;;;;;;3.97;3.60;;;27.30;55.20;;;;;;10419537;28;20208;-82
2022/06/15 14:19:57;;;;;;;3.37;3.10;;;27.30;55.30;;;;;;10425488;28;20238;-82
2022/06/15 14:25:07;;;;;;;5.90;3.67;;;27.20;56.70;;;;;;10423265;28;20209;-82
2022/06/15 14:30:23;;;;;;;4.23;3.93;;;27.20;55.20;;;;;;10411032;28;20226;-82
2022/06/15 14:35:25;;;;;;;4.50;4.10;;;27.20;55.10;;;;;;10426223;28;20205;-82
2022/06/15 14:40:36;;;;;;;4.27;3.97;;;27.30;53.80;;;;;;10413156;28;20228;-82
2022/06/15 14:45:42;;;;;;;4.33;3.77;;;27.40;54.00;;;;;;10423826;28;20794;-82
2022/06/15 14:50:44;;;;;;;3.97;3.67;;;27.40;56.10;;;;;;10412342;28;20217;-82
2022/06/15 14:55:48;;;;;;;3.43;3.23;;;27.30;56.00;;;;;;10375782;28;20213;-82
2022/06/15 15:01:04;;;;;;;3.20;3.00;;;27.30;56.10;;;;;;10408093;28;20260;-82
2022/06/15 15:06:08;;;;;;;4.23;3.83;;;27.20;59.30;;;;;;10397766;28;20197;-81
2022/06/15 15:11:26;;;;;;;4.60;3.90;;;27.20;54.80;;;;;;10391460;28;20226;-82
2022/06/15 15:16:31;;;;;;;4.10;3.70;;;27.20;57.30;;;;;;10387258;28;20297;-82
2022/06/15 15:21:36;;;;;;;3.03;2.83;;;27.20;57.00;;;;;;10400582;28;20308;-83
2022/06/15 15:26:41;;;;;;;4.23;3.93;;;27.10;57.50;;;;;;10401438;28;20578;-81
2022/06/15 15:42:26;;;;;;;4.40;3.60;;;26.80;61.10;;;;;;10404384;28;20222;-81
2022/06/15 15:47:30;;;;;;;4.20;3.60;;;26.80;59.40;;;;;;10381806;28;20225;-81
2022/06/15 15:52:32;;;;;;;4.03;3.73;;;26.80;61.50;;;;;;10365698;28;20245;-81
2022/06/15 15:57:36;;;;;;;4.50;4.10;;;26.70;59.50;;;;;;10381891;28;20203;-82
2022/06/15 16:02:40;;;;;;;3.67;3.37;;;26.70;58.40;;;;;;10390151;28;20249;-81
2022/06/15 16:07:43;;;;;;;4.27;3.97;;;26.80;60.10;;;;;;10387234;28;20205;-81
2022/06/15 16:12:46;;;;;;;3.80;3.50;;;26.80;60.10;;;;;;10378339;28;20350;-80
2022/06/15 16:17:50;;;;;;;4.90;4.50;;;26.70;61.60;;;;;;10367483;28;20187;-81
2022/06/15 16:22:54;;;;;;;4.40;4.10;;;26.60;60.60;;;;;;10369072;28;20230;-81
2022/06/15 16:27:59;;;;;;;5.03;4.53;;;26.70;59.80;;;;;;10361044;28;20202;-82
2022/06/15 16:33:02;;;;;;;4.00;3.80;;;26.80;58.60;;;;;;10383767;28;20454;-82
2022/06/15 16:38:04;;;;;;;3.90;3.60;;;26.80;60.20;;;;;;10375991;28;20202;-80
2022/06/15 16:43:08;;;;;;;4.30;4.00;;;26.90;59.40;;;;;;10374410;28;20223;-82
2022/06/15 16:48:11;;;;;;;4.07;3.80;;;27.00;58.00;;;;;;10387096;28;20234;-82
2022/06/15 16:53:14;;;;;;;4.30;3.93;;;27.00;58.00;;;;;;10402260;28;20606;-82
2022/06/15 16:58:21;;;;;;;4.23;3.93;;;27.10;58.10;;;;;;10390201;28;20544;-82
2022/06/15 17:03:23;;;;;;;3.83;3.57;;;27.00;58.60;;;;;;10399634;28;20233;-81
2022/06/15 17:08:25;;;;;;;3.57;3.27;;;26.90;57.30;;;;;;10386282;28;20618;-80
2022/06/15 17:13:29;;;;;;;3.40;3.20;;;26.90;57.80;;;;;;10394287;28;20280;-81
2022/06/15 17:18:32;;;;;;;4.33;4.00;;;26.80;56.50;;;;;;10385266;28;20203;-80
2022/06/15 17:23:37;;;;;;;4.33;4.00;;;26.70;56.40;;;;;;10377371;28;20703;-81
2022/06/15 17:28:44;;;;;;;4.37;3.97;;;26.70;56.00;;;;;;10407174;28;20690;-81
2022/06/15 17:33:47;;;;;;;3.77;3.57;;;26.60;55.20;;;;;;10406030;28;20262;-80
2022/06/15 17:38:50;;;;;;;4.10;3.80;;;26.60;54.20;;;;;;10372933;28;20601;-81
2022/06/15 17:43:55;;;;;;;4.03;3.33;;;26.60;54.00;;;;;;10402172;28;20226;-82
2022/06/15 17:48:58;;;;;;;3.67;3.37;;;26.50;54.20;;;;;;10389440;28;20230;-82
2022/06/15 17:54:00;;;;;;;6.93;3.80;;;26.50;55.10;;;;;;10412574;28;20195;-80
2022/06/15 17:59:07;;;;;;;3.73;3.17;;;26.40;54.00;;;;;;10413752;28;20655;-80
2022/06/15 18:04:10;;;;;;;2.90;2.80;;;26.40;55.50;;;;;;10394624;28;20222;-83
2022/06/15 18:09:12;;;;;;;3.70;3.50;;;26.40;53.70;;;;;;10410603;28;20222;-82
2022/06/15 18:14:19;;;;;;;3.83;3.63;;;26.30;54.60;;;;;;10406760;28;20702;-83
2022/06/15 18:19:23;;;;;;;3.70;3.50;;;26.20;54.00;;;;;;10413710;28;20238;-82
2022/06/15 18:24:26;;;;;;;4.03;3.40;;;26.20;55.60;;;;;;10425552;28;20226;-81
2022/06/15 18:29:29;;;;;;;4.30;3.90;;;26.00;55.00;;;;;;10407344;28;20218;-81
2022/06/15 18:34:33;;;;;;;3.50;3.30;;;26.00;55.60;;;;;;10424761;28;20229;-82
2022/06/15 18:39:37;;;;;;;3.20;3.00;;;25.90;56.00;;;;;;10419587;28;20218;-81
2022/06/15 18:50:04;;;;;;;3.53;3.23;;;25.80;56.30;;;;;;10393620;28;20248;-81
2022/06/15 18:55:07;;;;;;;3.97;3.67;;;25.60;57.00;;;;;;10406924;28;20611;-81
2022/06/15 19:00:12;;;;;;;4.27;3.93;;;25.50;59.60;;;;;;10405953;28;20273;-81
2022/06/15 19:05:15;;;;;;;4.43;4.00;;;25.50;58.80;;;;;;10410215;28;20199;-81
2022/06/15 19:10:17;;;;;;;3.63;3.40;;;25.40;59.30;;;;;;10389337;28;20226;-81
2022/06/15 19:15:21;;;;;;;4.87;4.47;;;25.30;59.90;;;;;;10378670;28;20325;-81
2022/06/15 19:20:24;;;;;;;4.10;3.80;;;25.10;60.60;;;;;;10384277;28;20670;-81
2022/06/15 19:25:27;;;;;;;4.20;3.80;;;25.00;60.90;;;;;;10417282;28;20206;-81
2022/06/15 19:30:31;;;;;;;5.10;3.80;;;24.80;59.80;;;;;;10414148;28;20214;-82
2022/06/15 19:35:34;;;;;;;3.43;3.23;;;24.70;60.30;;;;;;10425813;28;20233;-82
2022/06/15 19:40:37;;;;;;;4.03;3.73;;;24.60;59.90;;;;;;10400256;28;20655;-82
2022/06/15 19:45:42;;;;;;;4.20;3.80;;;24.50;60.30;;;;;;10412244;28;20207;-82
2022/06/15 19:50:46;;;;;;;3.93;3.47;;;24.30;60.20;;;;;;10416107;28;20226;-81
2022/06/15 19:55:48;;;;;;;3.90;3.70;;;24.20;60.40;;;;;;10409977;28;20209;-82
2022/06/15 20:00:52;;;;;;;5.50;4.20;;;24.10;60.30;;;;;;10415497;28;20229;-82
2022/06/15 20:05:54;;;;;;;4.57;4.17;;;24.00;59.50;;;;;;10408348;28;20265;-82
2022/06/15 20:10:56;;;;;;;4.67;4.37;;;24.00;60.40;;;;;;10413306;28;20233;-82
2022/06/15 20:16:02;;;;;;;4.73;4.33;;;23.90;60.60;;;;;;10410836;28;20213;-82
2022/06/15 20:21:08;;;;;;;3.60;3.40;;;23.80;60.80;;;;;;10405337;28;20245;-82
2022/06/15 20:26:14;;;;;;;7.60;4.30;;;23.70;61.20;;;;;;10405735;28;20214;-81
2022/06/15 20:31:21;;;;;;;3.60;3.40;;;23.60;61.20;;;;;;10414808;28;20718;-82
2022/06/15 20:36:23;;;;;;;4.70;4.00;;;23.60;61.60;;;;;;10416370;28;20209;-82
2022/06/15 20:41:27;;;;;;;4.33;3.93;;;23.50;61.20;;;;;;10399358;28;20260;-81
2022/06/15 20:46:35;;;;;;;5.23;3.50;;;23.50;60.80;;;;;;10400134;28;20210;-83
2022/06/15 20:51:38;;;;;;;7.73;4.30;;;23.40;61.50;;;;;;10412916;28;20295;-83
2022/06/15 20:56:48;;;;;;;3.50;3.30;;;23.40;61.10;;;;;;10400380;28;20303;-82
2022/06/15 21:01:51;;;;;;;4.40;4.10;;;23.30;62.40;;;;;;10410591;28;20664;-82
2022/06/15 21:06:56;;;;;;;4.10;3.80;;;23.20;61.40;;;;;;10381574;28;20212;-82
2022/06/15 21:17:41;;;;;;;3.10;2.90;;;23.10;60.60;;;;;;10409799;28;20202;-82
2022/06/15 21:22:46;;;;;;;4.10;3.80;;;23.00;59.90;;;;;;10397059;28;20227;-82
2022/06/15 21:27:53;;;;;;;3.40;3.20;;;23.00;59.40;;;;;;10420178;28;20222;-82
2022/06/15 21:32:58;;;;;;;3.53;3.23;;;23.00;59.60;;;;;;10392605;28;20222;-83
2022/06/15 21:38:00;;;;;;;5.20;3.80;;;22.90;61.50;;;;;;10404577;28;20209;-83
2022/06/15 21:43:04;;;;;;;3.90;3.57;;;22.90;59.60;;;;;;10401960;28;20296;-82
2022/06/15 21:48:08;;;;;;;3.17;2.97;;;22.90;59.70;;;;;;10383997;28;20576;-83
2022/06/15 21:53:13;;;;;;;3.10;2.80;;;22.80;61.40;;;;;;10389124;28;20222;-81
2022/06/15 21:58:15;;;;;;;3.53;3.23;;;22.80;61.50;;;;;;10406317;28;20206;-82
2022/06/15 22:03:19;;;;;;;6.23;3.40;;;22.70;60.50;;;;;;10407813;28;20705;-82
2022/06/15 22:08:21;;;;;;;3.80;3.50;;;22.70;64.00;;;;;;10397718;28;20222;-82
2022/06/15 22:13:23;;;;;;;4.10;3.80;;;22.60;61.70;;;;;;10406874;28;20202;-80
2022/06/15 22:18:27;;;;;;;4.10;3.80;;;22.60;61.80;;;;;;10382781;28;20206;-82
2022/06/15 22:23:29;;;;;;;4.03;3.10;;;22.50;61.90;;;;;;10392881;28;20226;-81
2022/06/15 22:28:32;;;;;;;3.73;3.43;;;22.50;63.90;;;;;;10390560;28;20252;-81
2022/06/15 22:33:38;;;;;;;7.93;3.77;;;22.40;63.80;;;;;;10363015;28;20222;-81
2022/06/15 22:38:43;;;;;;;4.00;3.70;;;22.40;63.70;;;;;;10384845;28;20230;-82
2022/06/15 22:43:45;;;;;;;3.70;3.50;;;22.30;64.80;;;;;;10362806;28;20343;-82
2022/06/15 22:54:08;;;;;;;4.47;4.10;;;22.20;65.10;;;;;;10379458;28;20201;-81
2022/06/15 22:59:10;;;;;;;4.43;4.13;;;22.20;66.60;;;;;;10400642;28;20234;-82
2022/06/15 23:04:14;;;;;;;4.13;3.70;;;22.10;66.70;;;;;;10407599;28;20203;-83
2022/06/15 23:09:16;;;;;;;4.00;3.70;;;22.10;65.10;;;;;;10387773;28;20238;-81
2022/06/15 23:14:18;;;;;;;4.43;4.13;;;22.00;65.80;;;;;;10396354;28;20180;-81
2022/06/15 23:19:22;;;;;;;4.03;3.73;;;22.00;66.20;;;;;;10356720;28;20247;-83
2022/06/15 23:24:24;;;;;;;4.87;4.00;;;21.90;66.30;;;;;;10333332;28;20223;-81
2022/06/15 23:29:26;;;;;;;4.20;3.80;;;21.90;66.70;;;;;;10353912;28;20264;-81
2022/06/15 23:34:30;;;;;;;4.40;4.00;;;21.80;67.50;;;;;;10358431;28;20225;-82
2022/06/15 23:39:32;;;;;;;4.53;4.10;;;21.80;67.50;;;;;;10355588;28;20219;-82
2022/06/15 23:44:38;;;;;;;4.57;4.20;;;21.70;68.80;;;;;;10356412;28;20208;-81
2022/06/15 23:49:42;;;;;;;9.00;3.80;;;21.70;68.10;;;;;;10350359;28;20229;-83
2022/06/15 23:54:45;;;;;;;4.00;3.67;;;21.60;69.40;;;;;;10376084;28;20226;-83
2022/06/15 23:59:47;;;;;;;3.80;3.50;;;21.60;67.90;;;;;;10338887;28;20223;-82
